sensor_id;sensor_type;location;lat;lon;timestamp;pressure;altitude;pressure_sealevel;temperature;humidity
32733;BME280;11867;51.198;11.966;2023-01-23T00:00:50;102137.03;;;2.70;97.26
32733;BME280;11867;51.198;11.966;2023-01-23T00:01:53;102142.88;;;2.88;97.02
32733;BME280;11867;51.198;11.966;2023-01-23T00:02:56;102142.53;;;3.06;96.95
32733;BME280;11867;51.198;11.966;2023-01-23T00:03:59;102132.19;;;3.10;95.98
32733;BME280;11867;51.198;11.966;2023-01-23T00:05:01;102137.47;;;3.18;95.80
32733;BME280;11867;51.198;11.966;2023-01-23T00:06:06;102140.63;;;2.62;96.50
32733;BME280;11867;51.198;11.966;2023-01-23T00:07:09;102145.84;;;2.78;97.43
32733;BME280;11867;51.198;11.966;2023-01-23T00:08:11;102148.38;;;2.95;97.09
32733;BME280;11867;51.198;11.966;2023-01-23T00:09:13;102139.81;;;2.91;96.85
32733;BME280;11867;51.198;11.966;2023-01-23T00:10:16;102149.75;;;2.61;96.81
32733;BME280;11867;51.198;11.966;2023-01-23T00:11:19;102143.06;;;2.72;97.65
32733;BME280;11867;51.198;11.966;2023-01-23T00:12:22;102146.06;;;2.92;97.33
32733;BME280;11867;51.198;11.966;2023-01-23T00:13:24;102132.94;;;3.03;96.64
32733;BME280;11867;51.198;11.966;2023-01-23T00:14:27;102142.22;;;3.16;96.06
32733;BME280;11867;51.198;11.966;2023-01-23T00:15:29;102148.72;;;2.77;96.01
32733;BME280;11867;51.198;11.966;2023-01-23T00:16:33;102149.44;;;2.71;96.60
32733;BME280;11867;51.198;11.966;2023-01-23T00:17:36;102152.44;;;2.61;97.94
32733;BME280;11867;51.198;11.966;2023-01-23T00:18:42;102153.75;;;2.80;98.27
32733;BME280;11867;51.198;11.966;2023-01-23T00:19:43;102144.28;;;2.99;97.39
32733;BME280;11867;51.198;11.966;2023-01-23T00:20:46;102152.75;;;3.11;96.71
32733;BME280;11867;51.198;11.966;2023-01-23T00:21:48;102152.09;;;3.09;96.44
32733;BME280;11867;51.198;11.966;2023-01-23T00:22:53;102152.44;;;2.91;96.61
32733;BME280;11867;51.198;11.966;2023-01-23T00:23:56;102158.47;;;3.08;96.35
32733;BME280;11867;51.198;11.966;2023-01-23T00:24:59;102149.75;;;2.91;96.51
32733;BME280;11867;51.198;11.966;2023-01-23T00:26:02;102148.34;;;3.10;96.01
32733;BME280;11867;51.198;11.966;2023-01-23T00:27:05;102147.59;;;3.16;95.70
32733;BME280;11867;51.198;11.966;2023-01-23T00:28:07;102141.09;;;3.25;95.12
32733;BME280;11867;51.198;11.966;2023-01-23T00:29:09;102135.41;;;3.35;95.10
32733;BME280;11867;51.198;11.966;2023-01-23T00:30:12;102141.22;;;3.53;94.23
32733;BME280;11867;51.198;11.966;2023-01-23T00:31:15;102143.50;;;3.35;93.88
32733;BME280;11867;51.198;11.966;2023-01-23T00:32:18;102147.91;;;3.21;94.60
32733;BME280;11867;51.198;11.966;2023-01-23T00:33:20;102152.16;;;3.15;94.74
32733;BME280;11867;51.198;11.966;2023-01-23T00:34:24;102144.72;;;3.17;95.16
32733;BME280;11867;51.198;11.966;2023-01-23T00:35:26;102151.16;;;3.31;94.90
32733;BME280;11867;51.198;11.966;2023-01-23T00:36:30;102149.53;;;3.37;94.24
32733;BME280;11867;51.198;11.966;2023-01-23T00:37:32;102155.38;;;3.40;94.30
32733;BME280;11867;51.198;11.966;2023-01-23T00:38:34;102151.28;;;3.44;93.75
32733;BME280;11867;51.198;11.966;2023-01-23T00:39:36;102154.59;;;2.95;94.76
32733;BME280;11867;51.198;11.966;2023-01-23T00:40:39;102161.34;;;2.76;96.26
32733;BME280;11867;51.198;11.966;2023-01-23T00:41:41;102152.44;;;2.91;97.11
32733;BME280;11867;51.198;11.966;2023-01-23T00:42:43;102165.09;;;3.20;96.17
32733;BME280;11867;51.198;11.966;2023-01-23T00:43:45;102158.59;;;3.29;95.49
32733;BME280;11867;51.198;11.966;2023-01-23T00:44:48;102147.59;;;3.31;94.93
32733;BME280;11867;51.198;11.966;2023-01-23T00:45:50;102152.91;;;3.24;94.81
32733;BME280;11867;51.198;11.966;2023-01-23T00:46:53;102159.13;;;2.80;95.09
32733;BME280;11867;51.198;11.966;2023-01-23T00:47:55;102149.91;;;2.59;97.35
32733;BME280;11867;51.198;11.966;2023-01-23T00:48:57;102155.19;;;2.53;97.24
32733;BME280;11867;51.198;11.966;2023-01-23T00:50:01;102149.34;;;2.49;98.19
32733;BME280;11867;51.198;11.966;2023-01-23T00:51:03;102154.66;;;2.72;98.12
32733;BME280;11867;51.198;11.966;2023-01-23T00:52:06;102153.44;;;2.60;98.38
32733;BME280;11867;51.198;11.966;2023-01-23T00:53:08;102154.97;;;2.92;97.78
32733;BME280;11867;51.198;11.966;2023-01-23T00:54:11;102156.72;;;3.15;96.55
32733;BME280;11867;51.198;11.966;2023-01-23T00:55:12;102155.69;;;3.31;94.89
32733;BME280;11867;51.198;11.966;2023-01-23T00:56:15;102148.72;;;3.21;94.59
32733;BME280;11867;51.198;11.966;2023-01-23T00:57:17;102158.66;;;3.36;94.45
32733;BME280;11867;51.198;11.966;2023-01-23T00:58:20;102157.34;;;3.47;93.98
32733;BME280;11867;51.198;11.966;2023-01-23T00:59:22;102157.34;;;3.47;93.95
32733;BME280;11867;51.198;11.966;2023-01-23T01:00:25;102158.09;;;3.40;93.64
32733;BME280;11867;51.198;11.966;2023-01-23T01:01:27;102162.28;;;3.28;93.70
32733;BME280;11867;51.198;11.966;2023-01-23T01:02:31;102162.69;;;3.25;94.33
32733;BME280;11867;51.198;11.966;2023-01-23T01:03:34;102166.28;;;3.32;94.44
32733;BME280;11867;51.198;11.966;2023-01-23T01:04:37;102170.56;;;3.41;94.07
32733;BME280;11867;51.198;11.966;2023-01-23T01:05:40;102170.00;;;3.01;94.38
32733;BME280;11867;51.198;11.966;2023-01-23T01:06:43;102176.91;;;3.04;95.00
32733;BME280;11867;51.198;11.966;2023-01-23T01:07:45;102170.28;;;3.21;95.36
32733;BME280;11867;51.198;11.966;2023-01-23T01:08:47;102167.31;;;3.31;94.92
32733;BME280;11867;51.198;11.966;2023-01-23T01:09:49;102178.09;;;3.01;94.08
32733;BME280;11867;51.198;11.966;2023-01-23T01:10:52;102166.88;;;2.98;95.38
32733;BME280;11867;51.198;11.966;2023-01-23T01:11:54;102177.09;;;3.02;95.76
32733;BME280;11867;51.198;11.966;2023-01-23T01:12:58;102162.47;;;3.12;95.64
32733;BME280;11867;51.198;11.966;2023-01-23T01:14:00;102166.88;;;3.13;95.20
32733;BME280;11867;51.198;11.966;2023-01-23T01:15:06;102174.47;;;3.24;94.59
32733;BME280;11867;51.198;11.966;2023-01-23T01:16:09;102178.91;;;2.87;94.97
32733;BME280;11867;51.198;11.966;2023-01-23T01:17:12;102180.22;;;2.38;97.43
32733;BME280;11867;51.198;11.966;2023-01-23T01:18:14;102183.88;;;2.22;98.50
32733;BME280;11867;51.198;11.966;2023-01-23T01:19:17;102182.16;;;2.30;99.72
32733;BME280;11867;51.198;11.966;2023-01-23T01:20:19;102181.56;;;2.57;99.28
32733;BME280;11867;51.198;11.966;2023-01-23T01:21:25;102187.94;;;2.79;99.01
32733;BME280;11867;51.198;11.966;2023-01-23T01:22:27;102183.31;;;2.88;98.23
32733;BME280;11867;51.198;11.966;2023-01-23T01:23:30;102178.81;;;2.95;97.59
32733;BME280;11867;51.198;11.966;2023-01-23T01:24:31;102178.47;;;2.98;96.82
32733;BME280;11867;51.198;11.966;2023-01-23T01:25:34;102179.47;;;2.97;96.73
32733;BME280;11867;51.198;11.966;2023-01-23T01:26:36;102179.94;;;3.16;96.36
32733;BME280;11867;51.198;11.966;2023-01-23T01:27:38;102185.06;;;3.11;95.82
32733;BME280;11867;51.198;11.966;2023-01-23T01:28:40;102189.78;;;2.79;96.43
32733;BME280;11867;51.198;11.966;2023-01-23T01:29:43;102183.47;;;3.01;96.78
32733;BME280;11867;51.198;11.966;2023-01-23T01:30:45;102183.13;;;3.19;95.66
32733;BME280;11867;51.198;11.966;2023-01-23T01:31:48;102181.00;;;3.00;95.82
32733;BME280;11867;51.198;11.966;2023-01-23T01:32:50;102201.31;;;2.50;96.51
32733;BME280;11867;51.198;11.966;2023-01-23T01:33:52;102189.72;;;2.49;98.06
32733;BME280;11867;51.198;11.966;2023-01-23T01:34:54;102187.38;;;2.69;98.08
32733;BME280;11867;51.198;11.966;2023-01-23T01:35:56;102198.72;;;2.94;97.74
32733;BME280;11867;51.198;11.966;2023-01-23T01:37:00;102182.19;;;2.97;97.16
32733;BME280;11867;51.198;11.966;2023-01-23T01:38:03;102176.22;;;2.87;96.62
32733;BME280;11867;51.198;11.966;2023-01-23T01:39:05;102191.03;;;3.06;96.26
32733;BME280;11867;51.198;11.966;2023-01-23T01:40:11;102200.84;;;2.84;96.38
32733;BME280;11867;51.198;11.966;2023-01-23T01:41:13;102194.06;;;2.88;96.85
32733;BME280;11867;51.198;11.966;2023-01-23T01:42:16;102201.25;;;2.96;96.49
32733;BME280;11867;51.198;11.966;2023-01-23T01:43:20;102192.22;;;3.03;96.77
32733;BME280;11867;51.198;11.966;2023-01-23T01:44:23;102187.28;;;3.22;95.91
32733;BME280;11867;51.198;11.966;2023-01-23T01:45:58;102199.66;;;3.31;95.26
32733;BME280;11867;51.198;11.966;2023-01-23T01:47:04;102194.38;;;3.08;95.54
32733;BME280;11867;51.198;11.966;2023-01-23T01:48:08;102202.47;;;3.23;95.43
32733;BME280;11867;51.198;11.966;2023-01-23T01:49:12;102204.31;;;3.37;95.04
32733;BME280;11867;51.198;11.966;2023-01-23T01:50:16;102202.50;;;2.85;95.38
32733;BME280;11867;51.198;11.966;2023-01-23T01:51:23;102206.41;;;2.82;96.38
32733;BME280;11867;51.198;11.966;2023-01-23T01:52:28;102204.53;;;2.68;96.65
32733;BME280;11867;51.198;11.966;2023-01-23T01:53:31;102201.03;;;2.82;97.23
32733;BME280;11867;51.198;11.966;2023-01-23T01:54:39;102214.16;;;3.15;96.54
32733;BME280;11867;51.198;11.966;2023-01-23T01:55:42;102207.28;;;3.28;95.87
32733;BME280;11867;51.198;11.966;2023-01-23T01:56:48;102217.09;;;2.76;95.66
32733;BME280;11867;51.198;11.966;2023-01-23T01:57:52;102211.81;;;2.82;96.81
32733;BME280;11867;51.198;11.966;2023-01-23T01:58:55;102224.38;;;3.05;96.10
32733;BME280;11867;51.198;11.966;2023-01-23T02:00:03;102219.72;;;2.84;96.74
32733;BME280;11867;51.198;11.966;2023-01-23T02:01:07;102222.34;;;3.07;96.67
32733;BME280;11867;51.198;11.966;2023-01-23T02:02:11;102221.50;;;3.21;95.82
32733;BME280;11867;51.198;11.966;2023-01-23T02:03:16;102226.31;;;2.96;95.42
32733;BME280;11867;51.198;11.966;2023-01-23T02:04:20;102232.13;;;2.85;96.10
32733;BME280;11867;51.198;11.966;2023-01-23T02:05:25;102223.22;;;2.70;96.68
32733;BME280;11867;51.198;11.966;2023-01-23T02:06:28;102224.03;;;2.70;97.56
32733;BME280;11867;51.198;11.966;2023-01-23T02:07:34;102232.81;;;2.87;97.35
32733;BME280;11867;51.198;11.966;2023-01-23T02:08:44;102231.25;;;2.55;97.47
32733;BME280;11867;51.198;11.966;2023-01-23T02:09:48;102231.44;;;2.07;99.41
32733;BME280;11867;51.198;11.966;2023-01-23T02:10:50;102237.91;;;2.44;100.00
32733;BME280;11867;51.198;11.966;2023-01-23T02:11:54;102233.78;;;2.56;99.45
32733;BME280;11867;51.198;11.966;2023-01-23T02:13:22;102236.63;;;2.55;99.95
32733;BME280;11867;51.198;11.966;2023-01-23T02:14:24;102237.81;;;2.06;100.00
32733;BME280;11867;51.198;11.966;2023-01-23T02:15:26;102244.84;;;1.84;100.00
32733;BME280;11867;51.198;11.966;2023-01-23T02:16:30;102235.25;;;1.81;100.00
32733;BME280;11867;51.198;11.966;2023-01-23T02:17:40;102223.69;;;2.04;100.00
32733;BME280;11867;51.198;11.966;2023-01-23T02:18:46;102233.22;;;1.84;100.00
32733;BME280;11867;51.198;11.966;2023-01-23T02:19:55;102241.81;;;2.10;100.00
32733;BME280;11867;51.198;11.966;2023-01-23T02:21:05;102227.13;;;2.44;100.00
32733;BME280;11867;51.198;11.966;2023-01-23T02:22:17;102228.97;;;2.43;100.00
32733;BME280;11867;51.198;11.966;2023-01-23T02:23:32;102232.94;;;2.33;100.00
32733;BME280;11867;51.198;11.966;2023-01-23T02:24:42;102226.44;;;2.65;100.00
32733;BME280;11867;51.198;11.966;2023-01-23T02:25:54;102236.56;;;2.63;99.86
32733;BME280;11867;51.198;11.966;2023-01-23T02:26:56;102231.72;;;2.58;100.00
32733;BME280;11867;51.198;11.966;2023-01-23T02:27:59;102217.16;;;2.68;99.27
32733;BME280;11867;51.198;11.966;2023-01-23T02:29:02;102200.53;;;2.64;99.17
32733;BME280;11867;51.198;11.966;2023-01-23T02:30:06;102217.91;;;2.76;98.95
32733;BME280;11867;51.198;11.966;2023-01-23T02:31:09;102201.03;;;2.82;98.29
32733;BME280;11867;51.198;11.966;2023-01-23T02:32:12;102234.72;;;3.16;97.47
32733;BME280;11867;51.198;11.966;2023-01-23T02:33:48;102228.47;;;3.01;96.85
32733;BME280;11867;51.198;11.966;2023-01-23T02:34:53;102229.88;;;3.27;96.39
32733;BME280;11867;51.198;11.966;2023-01-23T02:35:58;102229.22;;;3.39;95.38
32733;BME280;11867;51.198;11.966;2023-01-23T02:37:00;102233.88;;;3.46;94.39
32733;BME280;11867;51.198;11.966;2023-01-23T02:38:04;102240.00;;;3.54;94.07
32733;BME280;11867;51.198;11.966;2023-01-23T02:39:08;102242.50;;;3.41;94.39
32733;BME280;11867;51.198;11.966;2023-01-23T02:40:11;102236.75;;;3.29;94.36
32733;BME280;11867;51.198;11.966;2023-01-23T02:41:17;102233.13;;;3.37;94.57
32733;BME280;11867;51.198;11.966;2023-01-23T02:42:22;102233.22;;;3.29;94.77
32733;BME280;11867;51.198;11.966;2023-01-23T02:43:28;102230.16;;;3.32;94.38
32733;BME280;11867;51.198;11.966;2023-01-23T02:44:35;102239.06;;;3.47;94.60
32733;BME280;11867;51.198;11.966;2023-01-23T02:45:38;102225.59;;;3.47;94.24
32733;BME280;11867;51.198;11.966;2023-01-23T02:46:42;102229.41;;;3.53;93.57
32733;BME280;11867;51.198;11.966;2023-01-23T02:47:44;102234.34;;;3.34;93.45
32733;BME280;11867;51.198;11.966;2023-01-23T02:48:46;102238.16;;;3.10;94.48
32733;BME280;11867;51.198;11.966;2023-01-23T02:49:49;102227.47;;;3.17;95.08
32733;BME280;11867;51.198;11.966;2023-01-23T02:50:51;102237.50;;;3.08;95.35
32733;BME280;11867;51.198;11.966;2023-01-23T02:51:54;102237.38;;;3.01;95.57
32733;BME280;11867;51.198;11.966;2023-01-23T02:52:57;102236.44;;;2.94;95.84
32733;BME280;11867;51.198;11.966;2023-01-23T02:53:59;102233.91;;;2.78;96.56
32733;BME280;11867;51.198;11.966;2023-01-23T02:55:02;102239.88;;;2.88;97.14
32733;BME280;11867;51.198;11.966;2023-01-23T02:56:04;102234.09;;;2.91;97.08
32733;BME280;11867;51.198;11.966;2023-01-23T02:57:08;102232.38;;;2.98;96.48
32733;BME280;11867;51.198;11.966;2023-01-23T02:58:10;102239.63;;;3.13;96.53
32733;BME280;11867;51.198;11.966;2023-01-23T02:59:30;102238.09;;;2.95;96.07
32733;BME280;11867;51.198;11.966;2023-01-23T03:00:50;102238.66;;;2.91;96.28
32733;BME280;11867;51.198;11.966;2023-01-23T03:01:53;102242.16;;;3.14;96.12
32733;BME280;11867;51.198;11.966;2023-01-23T03:02:55;102246.03;;;3.12;96.13
32733;BME280;11867;51.198;11.966;2023-01-23T03:03:58;102231.47;;;2.68;96.35
32733;BME280;11867;51.198;11.966;2023-01-23T03:05:05;102240.44;;;2.83;97.54
32733;BME280;11867;51.198;11.966;2023-01-23T03:06:09;102246.47;;;2.86;96.75
32733;BME280;11867;51.198;11.966;2023-01-23T03:07:11;102242.66;;;2.80;97.56
32733;BME280;11867;51.198;11.966;2023-01-23T03:08:13;102225.94;;;2.24;98.99
32733;BME280;11867;51.198;11.966;2023-01-23T03:09:16;102246.75;;;2.53;99.58
32733;BME280;11867;51.198;11.966;2023-01-23T03:10:19;102244.97;;;2.83;98.79
32733;BME280;11867;51.198;11.966;2023-01-23T03:11:21;102253.41;;;2.80;97.69
32733;BME280;11867;51.198;11.966;2023-01-23T03:12:27;102228.69;;;2.76;98.22
32733;BME280;11867;51.198;11.966;2023-01-23T03:13:30;102224.56;;;2.51;97.70
32733;BME280;11867;51.198;11.966;2023-01-23T03:14:33;102214.38;;;2.61;98.27
32733;BME280;11867;51.198;11.966;2023-01-23T03:15:36;102244.22;;;2.89;98.17
32733;BME280;11867;51.198;11.966;2023-01-23T03:16:39;102241.00;;;2.94;97.80
32733;BME280;11867;51.198;11.966;2023-01-23T03:17:43;102214.63;;;3.04;97.49
32733;BME280;11867;51.198;11.966;2023-01-23T03:18:45;102217.22;;;2.97;96.83
32733;BME280;11867;51.198;11.966;2023-01-23T03:19:55;102221.13;;;3.10;96.40
32733;BME280;11867;51.198;11.966;2023-01-23T03:21:00;102227.34;;;2.95;95.91
32733;BME280;11867;51.198;11.966;2023-01-23T03:22:02;102231.78;;;2.27;98.15
32733;BME280;11867;51.198;11.966;2023-01-23T03:23:05;102248.31;;;2.47;99.28
32733;BME280;11867;51.198;11.966;2023-01-23T03:24:09;102227.47;;;2.41;99.62
32733;BME280;11867;51.198;11.966;2023-01-23T03:25:12;102224.06;;;2.24;100.00
32733;BME280;11867;51.198;11.966;2023-01-23T03:26:14;102233.75;;;2.10;100.00
32733;BME280;11867;51.198;11.966;2023-01-23T03:27:18;102251.16;;;2.22;100.00
32733;BME280;11867;51.198;11.966;2023-01-23T03:28:22;102220.34;;;2.02;100.00
32733;BME280;11867;51.198;11.966;2023-01-23T03:29:43;102238.75;;;2.45;100.00
32733;BME280;11867;51.198;11.966;2023-01-23T03:31:03;102241.97;;;2.40;100.00
32733;BME280;11867;51.198;11.966;2023-01-23T03:32:06;102225.88;;;2.55;100.00
32733;BME280;11867;51.198;11.966;2023-01-23T03:33:09;102253.28;;;2.96;99.57
32733;BME280;11867;51.198;11.966;2023-01-23T03:34:11;102251.78;;;2.94;98.54
32733;BME280;11867;51.198;11.966;2023-01-23T03:35:14;102216.16;;;2.46;98.76
32733;BME280;11867;51.198;11.966;2023-01-23T03:36:17;102246.19;;;2.57;98.73
32733;BME280;11867;51.198;11.966;2023-01-23T03:37:19;102243.06;;;2.69;98.84
32733;BME280;11867;51.198;11.966;2023-01-23T03:38:22;102232.16;;;2.24;100.00
32733;BME280;11867;51.198;11.966;2023-01-23T03:39:24;102230.59;;;2.30;100.00
32733;BME280;11867;51.198;11.966;2023-01-23T03:40:48;102225.44;;;2.20;100.00
32733;BME280;11867;51.198;11.966;2023-01-23T03:42:09;102256.81;;;2.59;100.00
32733;BME280;11867;51.198;11.966;2023-01-23T03:43:12;102264.75;;;2.29;100.00
32733;BME280;11867;51.198;11.966;2023-01-23T03:44:16;102234.56;;;2.42;100.00
32733;BME280;11867;51.198;11.966;2023-01-23T03:45:20;102229.28;;;2.26;100.00
32733;BME280;11867;51.198;11.966;2023-01-23T03:46:22;102248.72;;;2.36;100.00
32733;BME280;11867;51.198;11.966;2023-01-23T03:47:25;102257.81;;;2.35;100.00
32733;BME280;11867;51.198;11.966;2023-01-23T03:48:27;102273.22;;;2.18;100.00
32733;BME280;11867;51.198;11.966;2023-01-23T03:49:31;102259.34;;;2.06;100.00
32733;BME280;11867;51.198;11.966;2023-01-23T03:50:32;102240.34;;;2.31;100.00
32733;BME280;11867;51.198;11.966;2023-01-23T03:51:35;102274.34;;;2.32;100.00
32733;BME280;11867;51.198;11.966;2023-01-23T03:52:37;102229.78;;;1.98;100.00
32733;BME280;11867;51.198;11.966;2023-01-23T03:53:40;102266.53;;;2.14;100.00
32733;BME280;11867;51.198;11.966;2023-01-23T03:54:41;102252.00;;;1.92;100.00
32733;BME280;11867;51.198;11.966;2023-01-23T03:55:44;102243.19;;;1.75;100.00
32733;BME280;11867;51.198;11.966;2023-01-23T03:56:47;102246.72;;;1.75;100.00
32733;BME280;11867;51.198;11.966;2023-01-23T03:57:50;102278.72;;;1.62;100.00
32733;BME280;11867;51.198;11.966;2023-01-23T03:58:52;102246.00;;;1.42;100.00
32733;BME280;11867;51.198;11.966;2023-01-23T03:59:57;102234.38;;;1.58;100.00
32733;BME280;11867;51.198;11.966;2023-01-23T04:01:00;102271.28;;;1.72;100.00
32733;BME280;11867;51.198;11.966;2023-01-23T04:02:04;102277.44;;;1.41;100.00
32733;BME280;11867;51.198;11.966;2023-01-23T04:03:07;102273.69;;;1.51;100.00
32733;BME280;11867;51.198;11.966;2023-01-23T04:04:09;102278.53;;;1.72;100.00
32733;BME280;11867;51.198;11.966;2023-01-23T04:05:12;102237.41;;;1.47;100.00
32733;BME280;11867;51.198;11.966;2023-01-23T04:06:14;102255.69;;;1.68;100.00
32733;BME280;11867;51.198;11.966;2023-01-23T04:07:17;102239.94;;;1.88;100.00
32733;BME280;11867;51.198;11.966;2023-01-23T04:08:20;102252.78;;;1.69;100.00
32733;BME280;11867;51.198;11.966;2023-01-23T04:09:23;102270.81;;;2.00;100.00
32733;BME280;11867;51.198;11.966;2023-01-23T04:10:28;102248.19;;;2.17;100.00
32733;BME280;11867;51.198;11.966;2023-01-23T04:11:30;102276.13;;;2.62;100.00
32733;BME280;11867;51.198;11.966;2023-01-23T04:12:33;102237.56;;;2.62;100.00
32733;BME280;11867;51.198;11.966;2023-01-23T04:13:37;102258.09;;;2.86;100.00
32733;BME280;11867;51.198;11.966;2023-01-23T04:14:40;102231.03;;;2.79;100.00
32733;BME280;11867;51.198;11.966;2023-01-23T04:15:46;102256.69;;;2.90;99.78
32733;BME280;11867;51.198;11.966;2023-01-23T04:16:49;102252.97;;;2.91;99.70
32733;BME280;11867;51.198;11.966;2023-01-23T04:17:51;102236.34;;;2.88;98.86
32733;BME280;11867;51.198;11.966;2023-01-23T04:18:54;102271.16;;;2.89;98.47
32733;BME280;11867;51.198;11.966;2023-01-23T04:19:56;102245.81;;;2.83;98.48
32733;BME280;11867;51.198;11.966;2023-01-23T04:20:59;102270.38;;;2.66;99.21
32733;BME280;11867;51.198;11.966;2023-01-23T04:22:01;102240.66;;;2.36;99.90
32733;BME280;11867;51.198;11.966;2023-01-23T04:23:05;102233.75;;;2.10;100.00
32733;BME280;11867;51.198;11.966;2023-01-23T04:24:07;102262.06;;;2.52;100.00
32733;BME280;11867;51.198;11.966;2023-01-23T04:25:10;102248.81;;;2.66;100.00
32733;BME280;11867;51.198;11.966;2023-01-23T04:26:12;102265.25;;;2.94;100.00
32733;BME280;11867;51.198;11.966;2023-01-23T04:27:14;102256.31;;;2.93;99.41
32733;BME280;11867;51.198;11.966;2023-01-23T04:28:17;102268.63;;;3.11;98.51
32733;BME280;11867;51.198;11.966;2023-01-23T04:29:19;102240.00;;;3.10;97.64
32733;BME280;11867;51.198;11.966;2023-01-23T04:30:21;102256.16;;;3.10;97.90
32733;BME280;11867;51.198;11.966;2023-01-23T04:31:25;102242.09;;;2.85;97.44
32733;BME280;11867;51.198;11.966;2023-01-23T04:32:27;102228.63;;;2.47;98.57
32733;BME280;11867;51.198;11.966;2023-01-23T04:33:30;102251.13;;;1.99;100.00
32733;BME280;11867;51.198;11.966;2023-01-23T04:34:32;102266.00;;;2.18;100.00
32733;BME280;11867;51.198;11.966;2023-01-23T04:35:35;102236.19;;;1.97;100.00
32733;BME280;11867;51.198;11.966;2023-01-23T04:36:37;102244.53;;;2.33;100.00
32733;BME280;11867;51.198;11.966;2023-01-23T04:37:40;102253.50;;;2.49;100.00
32733;BME280;11867;51.198;11.966;2023-01-23T04:38:42;102249.19;;;2.16;100.00
32733;BME280;11867;51.198;11.966;2023-01-23T04:39:44;102265.69;;;2.13;100.00
32733;BME280;11867;51.198;11.966;2023-01-23T04:40:47;102237.00;;;2.29;100.00
32733;BME280;11867;51.198;11.966;2023-01-23T04:41:50;102238.78;;;2.59;100.00
32733;BME280;11867;51.198;11.966;2023-01-23T04:42:52;102256.13;;;2.80;100.00
32733;BME280;11867;51.198;11.966;2023-01-23T04:43:54;102272.88;;;2.90;100.00
32733;BME280;11867;51.198;11.966;2023-01-23T04:44:56;102265.59;;;2.91;100.00
32733;BME280;11867;51.198;11.966;2023-01-23T04:45:59;102262.63;;;2.86;99.28
32733;BME280;11867;51.198;11.966;2023-01-23T04:47:02;102272.88;;;3.05;98.31
32733;BME280;11867;51.198;11.966;2023-01-23T04:48:05;102275.69;;;3.12;97.99
32733;BME280;11867;51.198;11.966;2023-01-23T04:49:07;102278.59;;;3.10;98.20
32733;BME280;11867;51.198;11.966;2023-01-23T04:50:10;102286.25;;;2.98;98.21
32733;BME280;11867;51.198;11.966;2023-01-23T04:51:12;102246.97;;;2.43;98.58
32733;BME280;11867;51.198;11.966;2023-01-23T04:52:15;102271.16;;;2.51;99.55
32733;BME280;11867;51.198;11.966;2023-01-23T04:53:17;102266.97;;;2.72;100.00
32733;BME280;11867;51.198;11.966;2023-01-23T04:54:21;102265.88;;;2.58;99.72
32733;BME280;11867;51.198;11.966;2023-01-23T04:55:23;102267.03;;;2.40;100.00
32733;BME280;11867;51.198;11.966;2023-01-23T04:56:25;102286.53;;;2.66;100.00
32733;BME280;11867;51.198;11.966;2023-01-23T04:57:27;102283.78;;;2.74;100.00
32733;BME280;11867;51.198;11.966;2023-01-23T04:58:30;102258.25;;;2.85;99.74
32733;BME280;11867;51.198;11.966;2023-01-23T04:59:32;102263.78;;;3.06;98.87
32733;BME280;11867;51.198;11.966;2023-01-23T05:00:35;102267.22;;;3.00;97.99
32733;BME280;11867;51.198;11.966;2023-01-23T05:01:37;102288.16;;;3.13;97.70
32733;BME280;11867;51.198;11.966;2023-01-23T05:02:44;102289.50;;;2.94;97.57
32733;BME280;11867;51.198;11.966;2023-01-23T05:03:46;102308.50;;;3.15;97.80
32733;BME280;11867;51.198;11.966;2023-01-23T05:04:50;102275.41;;;3.07;97.23
32733;BME280;11867;51.198;11.966;2023-01-23T05:05:51;102278.59;;;2.87;97.03
32733;BME280;11867;51.198;11.966;2023-01-23T05:06:55;102276.28;;;2.84;97.23
32733;BME280;11867;51.198;11.966;2023-01-23T05:07:57;102315.66;;;3.08;97.97
32733;BME280;11867;51.198;11.966;2023-01-23T05:09:00;102271.91;;;2.83;98.07
32733;BME280;11867;51.198;11.966;2023-01-23T05:10:02;102285.81;;;3.10;97.83
32733;BME280;11867;51.198;11.966;2023-01-23T05:11:05;102288.06;;;3.21;97.54
32733;BME280;11867;51.198;11.966;2023-01-23T05:12:07;102278.50;;;3.18;96.46
32733;BME280;11867;51.198;11.966;2023-01-23T05:13:10;102275.56;;;2.90;95.96
32733;BME280;11867;51.198;11.966;2023-01-23T05:14:12;102307.88;;;3.28;96.43
32733;BME280;11867;51.198;11.966;2023-01-23T05:15:15;102289.06;;;3.20;96.44
32733;BME280;11867;51.198;11.966;2023-01-23T05:16:17;102289.16;;;3.12;95.90
32733;BME280;11867;51.198;11.966;2023-01-23T05:17:20;102321.94;;;3.00;96.09
32733;BME280;11867;51.198;11.966;2023-01-23T05:18:24;102320.81;;;2.95;97.55
32733;BME280;11867;51.198;11.966;2023-01-23T05:19:27;102289.78;;;2.38;98.58
32733;BME280;11867;51.198;11.966;2023-01-23T05:20:28;102319.78;;;2.73;99.40
32733;BME280;11867;51.198;11.966;2023-01-23T05:21:31;102311.97;;;2.86;99.27
32733;BME280;11867;51.198;11.966;2023-01-23T05:22:34;102313.34;;;2.82;98.97
32733;BME280;11867;51.198;11.966;2023-01-23T05:23:37;102286.25;;;2.60;99.46
32733;BME280;11867;51.198;11.966;2023-01-23T05:24:39;102306.16;;;2.74;99.71
32733;BME280;11867;51.198;11.966;2023-01-23T05:25:41;102318.38;;;2.62;99.92
32733;BME280;11867;51.198;11.966;2023-01-23T05:26:43;102286.16;;;2.69;100.00
32733;BME280;11867;51.198;11.966;2023-01-23T05:27:46;102311.31;;;2.84;100.00
32733;BME280;11867;51.198;11.966;2023-01-23T05:28:48;102294.44;;;2.13;100.00
32733;BME280;11867;51.198;11.966;2023-01-23T05:29:54;102329.78;;;2.41;100.00
32733;BME280;11867;51.198;11.966;2023-01-23T05:30:57;102305.06;;;2.37;100.00
32733;BME280;11867;51.198;11.966;2023-01-23T05:32:04;102340.69;;;2.16;100.00
32733;BME280;11867;51.198;11.966;2023-01-23T05:33:16;102332.69;;;2.00;100.00